createdAt,value
2017-07-30T00:00:27.836Z,0
2017-07-30T00:01:37.694Z,0
2017-07-30T00:02:46.575Z,0
2017-07-30T00:03:55.458Z,0
2017-07-30T00:05:05.294Z,0
2017-07-30T00:06:14.819Z,0
2017-07-30T00:07:23.702Z,0
2017-07-30T00:08:33.234Z,0
2017-07-30T00:09:42.763Z,0
2017-07-30T00:10:52.996Z,0
2017-07-30T00:12:02.198Z,0
2017-07-30T00:13:11.739Z,0
2017-07-30T00:14:21.274Z,0
2017-07-30T00:15:30.805Z,0
2017-07-30T00:16:40.491Z,0
2017-07-30T00:17:49.696Z,0
2017-07-30T00:18:58.582Z,0
2017-07-30T00:20:08.830Z,0
2017-07-30T00:21:18.035Z,0
2017-07-30T00:22:27.656Z,0
2017-07-30T00:23:37.507Z,0
2017-07-30T00:24:46.719Z,0
2017-07-30T00:25:56.570Z,0
2017-07-30T00:27:05.778Z,0
2017-07-30T00:28:15.146Z,0
2017-07-30T00:29:24.996Z,0
2017-07-30T00:30:33.883Z,0
2017-07-30T00:31:43.422Z,0
2017-07-30T00:32:52.955Z,0
2017-07-30T00:34:02.315Z,0
2017-07-30T00:35:12.167Z,0
2017-07-30T00:36:21.382Z,0
2017-07-30T00:37:30.591Z,0
2017-07-30T00:38:39.797Z,0
2017-07-30T00:39:49.154Z,0
2017-07-30T00:40:58.368Z,0
2017-07-30T00:42:07.590Z,0
2017-07-30T00:43:17.127Z,0
2017-07-30T00:44:26.983Z,0
2017-07-30T00:45:36.337Z,0
2017-07-30T00:46:45.865Z,0
2017-07-30T00:47:55.399Z,0
2017-07-30T00:49:04.928Z,0
2017-07-30T00:50:14.136Z,0
2017-07-30T00:51:23.670Z,0
2017-07-30T00:52:32.560Z,0
2017-07-30T00:53:42.086Z,0
2017-07-30T00:54:50.970Z,0
2017-07-30T00:56:00.822Z,0
2017-07-30T00:57:10.071Z,0
2017-07-30T00:58:19.282Z,0
2017-07-30T00:59:28.489Z,0
2017-07-30T01:00:38.344Z,0
2017-07-30T01:01:47.549Z,0
2017-07-30T01:02:57.227Z,0
2017-07-30T01:04:06.754Z,0
2017-07-30T01:05:16.609Z,0
2017-07-30T01:06:25.492Z,0
2017-07-30T01:07:35.020Z,0
2017-07-30T01:08:44.378Z,0
2017-07-30T01:09:53.981Z,0
2017-07-30T01:11:03.838Z,0
2017-07-30T01:12:13.041Z,0
2017-07-30T01:13:21.928Z,0
2017-07-30T01:14:31.105Z,0
2017-07-30T01:15:40.310Z,0
2017-07-30T01:16:49.840Z,0
2017-07-30T01:17:58.721Z,0
2017-07-30T01:19:08.570Z,0
2017-07-30T01:20:18.202Z,0
2017-07-30T01:21:27.404Z,0
2017-07-30T01:22:36.624Z,0
2017-07-30T01:23:45.508Z,0
2017-07-30T01:24:55.360Z,0
2017-07-30T01:26:04.559Z,0
2017-07-30T01:27:14.089Z,0
2017-07-30T01:28:22.975Z,0
2017-07-30T01:29:32.507Z,0
2017-07-30T01:30:41.392Z,0
2017-07-30T01:31:51.024Z,0
2017-07-30T01:33:00.556Z,0
2017-07-30T01:34:10.173Z,0
2017-07-30T01:35:19.380Z,0
2017-07-30T01:36:28.587Z,0
2017-07-30T01:37:40.900Z,0
2017-07-30T01:38:50.137Z,0
2017-07-30T01:39:59.018Z,0
2017-07-30T01:41:08.232Z,0
2017-07-30T01:42:17.435Z,0
2017-07-30T01:43:26.792Z,0
2017-07-30T01:44:36.002Z,0
2017-07-30T01:45:45.551Z,0
2017-07-30T01:46:55.087Z,0
2017-07-30T01:48:03.966Z,0
2017-07-30T01:49:13.699Z,0
2017-07-30T01:50:23.228Z,0
2017-07-30T01:51:33.084Z,0
2017-07-30T01:52:42.295Z,0
2017-07-30T01:53:51.503Z,0
2017-07-30T01:55:01.512Z,0
2017-07-30T01:56:10.397Z,0
2017-07-30T01:57:19.285Z,0
2017-07-30T01:58:28.504Z,0
2017-07-30T01:59:37.710Z,0
2017-07-30T02:00:47.442Z,0
2017-07-30T02:01:56.969Z,0
2017-07-30T02:03:06.514Z,0
2017-07-30T02:04:15.719Z,0
2017-07-30T02:05:24.939Z,0
2017-07-30T02:06:34.294Z,0
2017-07-30T02:07:43.501Z,0
2017-07-30T02:08:53.033Z,0
2017-07-30T02:10:01.912Z,0
2017-07-30T02:11:11.117Z,0
2017-07-30T02:12:21.122Z,0
2017-07-30T02:13:30.979Z,0
2017-07-30T02:14:40.196Z,0
2017-07-30T02:15:49.078Z,0
2017-07-30T02:16:58.604Z,0
2017-07-30T02:18:08.245Z,0
2017-07-30T02:19:17.455Z,0
2017-07-30T02:20:26.660Z,0
2017-07-30T02:21:35.540Z,0
2017-07-30T02:22:44.745Z,0
2017-07-30T02:23:53.999Z,0
2017-07-30T02:25:03.202Z,0
2017-07-30T02:26:12.741Z,0
2017-07-30T02:27:21.625Z,0
2017-07-30T02:28:31.161Z,0
2017-07-30T02:29:40.526Z,0
2017-07-30T02:30:50.063Z,0
2017-07-30T02:31:58.945Z,0
2017-07-30T02:33:08.484Z,0
2017-07-30T02:34:18.339Z,0
2017-07-30T02:35:28.345Z,0
2017-07-30T02:36:38.199Z,0
2017-07-30T02:37:47.418Z,0
2017-07-30T02:38:57.273Z,0
2017-07-30T02:40:06.811Z,0
2017-07-30T02:41:16.662Z,0
2017-07-30T02:42:26.513Z,0
2017-07-30T02:43:35.717Z,0
2017-07-30T02:44:45.893Z,0
2017-07-30T02:45:55.423Z,0
2017-07-30T02:47:05.256Z,0
2017-07-30T02:48:14.465Z,0
2017-07-30T02:49:24.321Z,0
2017-07-30T02:50:34.500Z,0
2017-07-30T02:51:43.393Z,0
2017-07-30T02:52:53.071Z,0
2017-07-30T02:54:02.605Z,0
2017-07-30T02:55:11.812Z,0
2017-07-30T02:56:21.022Z,0
2017-07-30T02:57:30.549Z,0
2017-07-30T02:58:39.583Z,0
2017-07-30T02:59:49.437Z,0
2017-07-30T03:00:58.640Z,0
2017-07-30T03:02:07.846Z,0
2017-07-30T03:03:17.694Z,0
2017-07-30T03:04:26.628Z,0
2017-07-30T03:05:35.513Z,0
2017-07-30T03:06:45.041Z,0
2017-07-30T03:07:54.570Z,0
2017-07-30T03:09:04.423Z,0
2017-07-30T03:10:14.103Z,0
2017-07-30T03:11:22.983Z,0
2017-07-30T03:12:32.188Z,0
2017-07-30T03:13:41.110Z,0
2017-07-30T03:14:50.636Z,0
2017-07-30T03:15:59.618Z,0
2017-07-30T03:17:08.502Z,0
2017-07-30T03:18:17.708Z,0
2017-07-30T03:19:27.242Z,0
2017-07-30T03:20:36.800Z,0
2017-07-30T03:21:46.009Z,0
2017-07-30T03:22:55.572Z,0
2017-07-30T03:24:04.777Z,0
2017-07-30T03:25:13.991Z,0
2017-07-30T03:26:23.849Z,0
2017-07-30T03:27:33.527Z,0
2017-07-30T03:28:42.732Z,0
2017-07-30T03:29:52.264Z,0
2017-07-30T03:31:01.804Z,0
2017-07-30T03:32:11.343Z,0
2017-07-30T03:33:21.245Z,0
2017-07-30T03:34:30.776Z,0
2017-07-30T03:35:39.983Z,0
2017-07-30T03:36:49.835Z,0
2017-07-30T03:37:58.719Z,0
2017-07-30T03:39:08.226Z,0
2017-07-30T03:40:17.430Z,0
2017-07-30T03:41:26.960Z,5
2017-07-30T03:42:36.816Z,5
2017-07-30T03:43:46.343Z,5
2017-07-30T03:44:55.471Z,5
2017-07-30T03:46:04.686Z,5
2017-07-30T03:47:13.894Z,5
2017-07-30T03:48:23.102Z,5
2017-07-30T03:49:32.628Z,10
2017-07-30T03:50:42.210Z,10
2017-07-30T03:51:51.422Z,10
2017-07-30T03:53:00.307Z,10
2017-07-30T03:54:09.514Z,10
2017-07-30T03:55:19.038Z,15
2017-07-30T03:56:28.396Z,15
2017-07-30T03:57:37.935Z,15
2017-07-30T03:58:47.469Z,15
2017-07-30T03:59:57.329Z,20
2017-07-30T04:01:07.184Z,20
2017-07-30T04:02:16.215Z,25
2017-07-30T04:03:25.743Z,25
2017-07-30T04:04:35.269Z,30
2017-07-30T04:05:44.478Z,30
2017-07-30T04:06:53.403Z,35
2017-07-30T04:08:02.593Z,35
2017-07-30T04:09:12.133Z,35
2017-07-30T04:10:21.340Z,35
2017-07-30T04:11:30.229Z,30
2017-07-30T04:12:39.433Z,30
2017-07-30T04:13:48.461Z,35
2017-07-30T04:14:57.989Z,35
2017-07-30T04:16:07.521Z,35
2017-07-30T04:17:16.730Z,40
2017-07-30T04:18:25.936Z,40
2017-07-30T04:19:35.621Z,40
2017-07-30T04:20:45.499Z,40
2017-07-30T04:21:55.353Z,40
2017-07-30T04:23:04.888Z,45
2017-07-30T04:24:13.771Z,45
2017-07-30T04:25:23.128Z,45
2017-07-30T04:26:32.011Z,45
2017-07-30T04:27:41.220Z,50
2017-07-30T04:28:50.100Z,50
2017-07-30T04:29:59.627Z,50
2017-07-30T04:31:09.638Z,50
2017-07-30T04:32:19.195Z,55
2017-07-30T04:33:28.728Z,55
2017-07-30T04:34:37.945Z,60
2017-07-30T04:35:46.831Z,65
2017-07-30T04:36:55.728Z,70
2017-07-30T04:38:04.930Z,70
2017-07-30T04:39:13.822Z,70
2017-07-30T04:40:23.360Z,70
2017-07-30T04:41:32.891Z,70
2017-07-30T04:42:42.501Z,70
2017-07-30T04:43:51.386Z,70
2017-07-30T04:45:00.277Z,70
2017-07-30T04:46:09.807Z,70
2017-07-30T04:47:18.691Z,70
2017-07-30T04:48:27.948Z,70
2017-07-30T04:49:37.153Z,70
2017-07-30T04:50:46.035Z,65
2017-07-30T04:51:55.241Z,55
2017-07-30T04:53:04.446Z,55
2017-07-30T04:54:13.978Z,55
2017-07-30T04:55:23.187Z,55
2017-07-30T04:56:32.394Z,55
2017-07-30T04:57:41.606Z,55
2017-07-30T04:58:51.135Z,60
2017-07-30T05:00:00.496Z,65
2017-07-30T05:01:10.353Z,70
2017-07-30T05:02:20.250Z,75
2017-07-30T05:03:29.775Z,80
2017-07-30T05:04:39.309Z,85
2017-07-30T05:05:49.140Z,90
2017-07-30T05:06:58.668Z,90
2017-07-30T05:08:08.523Z,90
2017-07-30T05:09:17.729Z,90
2017-07-30T05:10:26.935Z,85
2017-07-30T05:11:36.440Z,85
2017-07-30T05:12:46.623Z,90
2017-07-30T05:13:56.475Z,95
2017-07-30T05:15:05.677Z,100
2017-07-30T05:16:15.532Z,95
2017-07-30T05:17:24.562Z,90
2017-07-30T05:18:33.765Z,90
2017-07-30T05:19:43.617Z,90
2017-07-30T05:20:52.513Z,90
2017-07-30T05:22:01.397Z,95
2017-07-30T05:23:10.758Z,100
2017-07-30T05:24:20.616Z,95
2017-07-30T05:25:30.145Z,95
2017-07-30T05:26:40.000Z,105
2017-07-30T05:27:49.856Z,120
2017-07-30T05:28:59.539Z,135
2017-07-30T05:30:09.091Z,130
2017-07-30T05:31:18.618Z,135
2017-07-30T05:32:28.471Z,135
2017-07-30T05:33:37.355Z,130
2017-07-30T05:34:47.038Z,140
2017-07-30T05:35:56.247Z,145
2017-07-30T05:37:05.454Z,145
2017-07-30T05:38:14.986Z,155
2017-07-30T05:39:24.846Z,180
2017-07-30T05:40:34.753Z,200
2017-07-30T05:41:44.298Z,210
2017-07-30T05:42:53.832Z,195
2017-07-30T05:44:03.364Z,195
2017-07-30T05:45:13.223Z,155
2017-07-30T05:46:22.810Z,140
2017-07-30T05:47:31.697Z,145
2017-07-30T05:48:41.555Z,140
2017-07-30T05:49:51.088Z,155
2017-07-30T05:51:00.954Z,165
2017-07-30T05:52:10.534Z,155
2017-07-30T05:53:19.743Z,135
2017-07-30T05:54:29.606Z,115
2017-07-30T05:55:39.463Z,120
2017-07-30T05:56:48.995Z,115
2017-07-30T05:57:58.678Z,110
2017-07-30T05:59:07.893Z,95
2017-07-30T06:00:17.764Z,105
2017-07-30T06:01:26.650Z,115
2017-07-30T06:02:36.831Z,120
2017-07-30T06:03:46.139Z,120
2017-07-30T06:04:55.024Z,120
2017-07-30T06:06:04.559Z,145
2017-07-30T06:07:13.458Z,175
2017-07-30T06:08:23.000Z,175
2017-07-30T06:09:32.459Z,190
2017-07-30T06:10:41.702Z,200
2017-07-30T06:11:51.568Z,195
2017-07-30T06:13:01.105Z,175
2017-07-30T06:14:10.964Z,180
2017-07-30T06:15:20.817Z,170
2017-07-30T06:16:30.351Z,165
2017-07-30T06:17:40.210Z,185
2017-07-30T06:18:50.069Z,210
2017-07-30T06:19:58.952Z,250
2017-07-30T06:21:09.010Z,280
2017-07-30T06:22:18.217Z,290
2017-07-30T06:23:27.433Z,200
2017-07-30T06:24:36.965Z,150
2017-07-30T06:25:46.494Z,145
2017-07-30T06:26:56.028Z,165
2017-07-30T06:28:05.898Z,185
2017-07-30T06:29:14.793Z,200
2017-07-30T06:30:24.649Z,250
2017-07-30T06:31:34.188Z,260
2017-07-30T06:32:43.393Z,230
2017-07-30T06:33:52.277Z,205
2017-07-30T06:35:02.174Z,225
2017-07-30T06:36:11.382Z,250
2017-07-30T06:37:20.916Z,250
2017-07-30T06:38:30.179Z,245
2017-07-30T06:39:39.724Z,225
2017-07-30T06:40:48.618Z,205
2017-07-30T06:41:58.474Z,200
2017-07-30T06:43:08.008Z,225
2017-07-30T06:44:17.545Z,275
2017-07-30T06:45:27.082Z,250
2017-07-30T06:46:36.288Z,170
2017-07-30T06:47:45.497Z,160
2017-07-30T06:48:55.031Z,160
2017-07-30T06:50:04.672Z,170
2017-07-30T06:51:13.560Z,185
2017-07-30T06:52:23.738Z,190
2017-07-30T06:53:32.953Z,200
2017-07-30T06:54:42.157Z,210
2017-07-30T06:55:52.317Z,210
2017-07-30T06:57:01.218Z,200
2017-07-30T06:58:10.428Z,190
2017-07-30T06:59:19.311Z,195
2017-07-30T07:00:29.164Z,200
2017-07-30T07:01:38.419Z,225
2017-07-30T07:02:47.306Z,255
2017-07-30T07:03:56.191Z,250
2017-07-30T07:05:05.397Z,260
2017-07-30T07:06:14.606Z,240
2017-07-30T07:07:23.965Z,240
2017-07-30T07:08:33.497Z,255
2017-07-30T07:09:43.027Z,270
2017-07-30T07:10:52.912Z,265
2017-07-30T07:12:02.121Z,295
2017-07-30T07:13:12.029Z,335
2017-07-30T07:14:21.260Z,360
2017-07-30T07:15:30.794Z,265
2017-07-30T07:16:40.005Z,275
2017-07-30T07:17:48.890Z,335
2017-07-30T07:18:58.425Z,335
2017-07-30T07:20:07.343Z,250
2017-07-30T07:21:17.271Z,270
2017-07-30T07:22:26.160Z,260
2017-07-30T07:23:36.014Z,265
2017-07-30T07:24:45.228Z,345
2017-07-30T07:25:54.437Z,365
2017-07-30T07:27:03.974Z,355
2017-07-30T07:28:13.830Z,390
2017-07-30T07:29:23.038Z,440
2017-07-30T07:30:32.627Z,435
2017-07-30T07:31:41.870Z,415
2017-07-30T07:32:51.401Z,365
2017-07-30T07:34:00.613Z,320
2017-07-30T07:35:09.833Z,265
2017-07-30T07:36:19.194Z,260
2017-07-30T07:37:28.727Z,275
2017-07-30T07:38:37.622Z,260
2017-07-30T07:39:46.844Z,255
2017-07-30T07:40:56.381Z,270
2017-07-30T07:42:05.745Z,280
2017-07-30T07:43:15.280Z,290
2017-07-30T07:44:24.817Z,295
2017-07-30T07:45:34.681Z,255
2017-07-30T07:46:44.212Z,240
2017-07-30T07:47:53.199Z,245
2017-07-30T07:49:02.738Z,250
2017-07-30T07:50:12.598Z,250
2017-07-30T07:51:21.816Z,250
2017-07-30T07:52:31.027Z,255
2017-07-30T07:53:40.214Z,290
2017-07-30T07:54:49.426Z,305
2017-07-30T07:55:58.632Z,300
2017-07-30T07:57:08.163Z,275
2017-07-30T07:58:17.703Z,295
2017-07-30T07:59:27.535Z,290
2017-07-30T08:00:37.403Z,340
2017-07-30T08:01:46.616Z,375
2017-07-30T08:02:55.504Z,420
2017-07-30T08:04:04.394Z,460
2017-07-30T08:05:14.301Z,465
2017-07-30T08:06:23.837Z,410
2017-07-30T08:07:33.047Z,390
2017-07-30T08:08:42.259Z,345
2017-07-30T08:09:51.145Z,315
2017-07-30T08:11:01.004Z,295
2017-07-30T08:12:10.215Z,290
2017-07-30T08:13:19.423Z,320
2017-07-30T08:14:28.964Z,350
2017-07-30T08:15:38.175Z,400
2017-07-30T08:16:47.439Z,460
2017-07-30T08:17:56.646Z,485
2017-07-30T08:19:05.859Z,480
2017-07-30T08:20:15.093Z,410
2017-07-30T08:21:24.001Z,365
2017-07-30T08:22:33.313Z,395
2017-07-30T08:23:42.525Z,420
2017-07-30T08:24:51.736Z,400
2017-07-30T08:26:00.651Z,355
2017-07-30T08:27:09.544Z,320
2017-07-30T08:28:19.599Z,300
2017-07-30T08:29:28.817Z,290
2017-07-30T08:30:38.683Z,285
2017-07-30T08:31:48.225Z,295
2017-07-30T08:32:57.114Z,300
2017-07-30T08:34:06.801Z,310
2017-07-30T08:35:16.011Z,305
2017-07-30T08:36:25.243Z,305
2017-07-30T08:37:34.455Z,310
2017-07-30T08:38:43.984Z,325
2017-07-30T08:39:53.241Z,310
2017-07-30T08:41:02.446Z,310
2017-07-30T08:42:11.655Z,305
2017-07-30T08:43:21.512Z,320
2017-07-30T08:44:31.044Z,335
2017-07-30T08:45:40.263Z,345
2017-07-30T08:46:49.796Z,335
2017-07-30T08:47:59.328Z,345
2017-07-30T08:49:08.537Z,375
2017-07-30T08:50:17.754Z,380
2017-07-30T08:51:27.063Z,390
2017-07-30T08:52:36.284Z,400
2017-07-30T08:53:45.503Z,390
2017-07-30T08:54:54.395Z,395
2017-07-30T08:56:03.607Z,395
2017-07-30T08:57:13.224Z,390
2017-07-30T08:58:22.781Z,395
2017-07-30T08:59:31.673Z,420
2017-07-30T09:00:41.206Z,440
2017-07-30T09:01:50.742Z,440
2017-07-30T09:03:00.429Z,420
2017-07-30T09:04:10.289Z,460
2017-07-30T09:05:20.150Z,475
2017-07-30T09:06:30.006Z,430
2017-07-30T09:07:39.553Z,465
2017-07-30T09:08:48.538Z,520
2017-07-30T09:09:57.755Z,515
2017-07-30T09:11:06.967Z,450
2017-07-30T09:12:16.498Z,430
2017-07-30T09:13:26.360Z,415
2017-07-30T09:14:36.534Z,425
2017-07-30T09:15:46.068Z,480
2017-07-30T09:16:54.960Z,425
2017-07-30T09:18:04.495Z,380
2017-07-30T09:19:14.028Z,335
2017-07-30T09:20:23.669Z,260
2017-07-30T09:21:33.856Z,215
2017-07-30T09:22:43.068Z,180
2017-07-30T09:23:52.282Z,285
2017-07-30T09:25:01.828Z,355
2017-07-30T09:26:11.743Z,485
2017-07-30T09:27:20.955Z,640
2017-07-30T09:28:30.816Z,650
2017-07-30T09:29:39.701Z,665
2017-07-30T09:30:49.235Z,635
2017-07-30T09:31:59.476Z,590
2017-07-30T09:33:08.690Z,550
2017-07-30T09:34:17.908Z,550
2017-07-30T09:35:27.452Z,515
2017-07-30T09:36:36.988Z,485
2017-07-30T09:37:46.502Z,455
2017-07-30T09:38:55.713Z,440
2017-07-30T09:40:04.930Z,425
2017-07-30T09:41:14.140Z,410
2017-07-30T09:42:23.350Z,415
2017-07-30T09:43:33.462Z,420
2017-07-30T09:44:43.329Z,425
2017-07-30T09:45:52.537Z,440
2017-07-30T09:47:01.429Z,465
2017-07-30T09:48:10.641Z,505
2017-07-30T09:49:20.378Z,525
2017-07-30T09:50:29.597Z,515
2017-07-30T09:51:38.809Z,510
2017-07-30T09:52:48.022Z,545
2017-07-30T09:53:57.231Z,605
2017-07-30T09:55:06.447Z,585
2017-07-30T09:56:16.309Z,560
2017-07-30T09:57:26.175Z,570
2017-07-30T09:58:35.066Z,590
2017-07-30T09:59:44.279Z,630
2017-07-30T10:00:53.962Z,660
2017-07-30T10:02:03.172Z,590
2017-07-30T10:03:13.356Z,395
2017-07-30T10:04:22.901Z,520
2017-07-30T10:05:32.758Z,590
2017-07-30T10:06:42.294Z,575
2017-07-30T10:07:51.832Z,495
2017-07-30T10:09:00.719Z,465
2017-07-30T10:10:09.937Z,450
2017-07-30T10:11:19.799Z,395
2017-07-30T10:12:29.165Z,445
2017-07-30T10:13:38.697Z,420
2017-07-30T10:14:48.236Z,480
2017-07-30T10:15:57.772Z,440
2017-07-30T10:17:06.995Z,400
2017-07-30T10:18:16.903Z,465
2017-07-30T10:19:26.115Z,470
2017-07-30T10:20:35.329Z,540
2017-07-30T10:21:44.214Z,535
2017-07-30T10:22:53.432Z,480
2017-07-30T10:24:03.121Z,480
2017-07-30T10:25:12.990Z,480
2017-07-30T10:26:22.526Z,540
2017-07-30T10:27:31.422Z,500
2017-07-30T10:28:40.641Z,555
2017-07-30T10:29:50.507Z,570
2017-07-30T10:30:59.395Z,560
2017-07-30T10:32:08.283Z,560
2017-07-30T10:33:17.822Z,525
2017-07-30T10:34:27.036Z,525
2017-07-30T10:35:37.203Z,535
2017-07-30T10:36:46.098Z,460
2017-07-30T10:37:55.315Z,510
2017-07-30T10:39:04.528Z,645
2017-07-30T10:40:13.743Z,530
2017-07-30T10:41:23.108Z,500
2017-07-30T10:42:31.995Z,535
2017-07-30T10:43:41.537Z,610
2017-07-30T10:44:51.074Z,650
2017-07-30T10:46:00.608Z,615
2017-07-30T10:47:09.702Z,625
2017-07-30T10:48:18.916Z,575
2017-07-30T10:49:28.132Z,645
2017-07-30T10:50:37.022Z,650
2017-07-30T10:51:46.238Z,665
2017-07-30T10:52:55.333Z,675
2017-07-30T10:54:04.543Z,645
2017-07-30T10:55:14.081Z,645
2017-07-30T10:56:23.944Z,655
2017-07-30T10:57:33.487Z,695
2017-07-30T10:58:42.476Z,680
2017-07-30T10:59:51.696Z,705
2017-07-30T11:01:00.912Z,725
2017-07-30T11:02:09.811Z,685
2017-07-30T11:03:19.673Z,690
2017-07-30T11:04:29.038Z,710
2017-07-30T11:05:37.933Z,670
2017-07-30T11:06:47.795Z,660
2017-07-30T11:07:57.329Z,675
2017-07-30T11:09:07.520Z,750
2017-07-30T11:10:16.613Z,725
2017-07-30T11:11:25.829Z,735
2017-07-30T11:12:34.721Z,755
2017-07-30T11:13:44.261Z,760
2017-07-30T11:14:53.472Z,760
2017-07-30T11:16:02.737Z,750
2017-07-30T11:17:12.603Z,760
2017-07-30T11:18:22.477Z,745
2017-07-30T11:19:32.345Z,730
2017-07-30T11:20:42.207Z,750
2017-07-30T11:21:51.419Z,705
2017-07-30T11:23:00.638Z,700
2017-07-30T11:24:10.184Z,625
2017-07-30T11:25:19.399Z,525
2017-07-30T11:26:28.613Z,600
2017-07-30T11:27:38.305Z,750
2017-07-30T11:28:47.849Z,735
2017-07-30T11:29:57.067Z,720
2017-07-30T11:31:05.960Z,775
2017-07-30T11:32:15.498Z,780
2017-07-30T11:33:24.863Z,650
2017-07-30T11:34:34.399Z,540
2017-07-30T11:35:43.291Z,650
2017-07-30T11:36:52.534Z,615
2017-07-30T11:38:01.424Z,595
2017-07-30T11:39:11.483Z,625
2017-07-30T11:40:20.698Z,605
2017-07-30T11:41:29.925Z,455
2017-07-30T11:42:39.144Z,450
2017-07-30T11:43:48.679Z,450
2017-07-30T11:44:58.141Z,350
2017-07-30T11:46:07.353Z,445
2017-07-30T11:47:16.567Z,535
2017-07-30T11:48:25.783Z,585
2017-07-30T11:49:34.998Z,695
2017-07-30T11:50:44.137Z,610
2017-07-30T11:51:53.352Z,610
2017-07-30T11:53:02.242Z,740
2017-07-30T11:54:11.453Z,825
2017-07-30T11:55:20.995Z,900
2017-07-30T11:56:29.934Z,910
2017-07-30T11:57:39.143Z,935
2017-07-30T11:58:48.355Z,905
2017-07-30T11:59:58.213Z,1060
2017-07-30T12:01:07.427Z,895
2017-07-30T12:02:17.283Z,925
2017-07-30T12:03:27.146Z,720
2017-07-30T12:04:36.685Z,680
2017-07-30T12:05:45.897Z,625
2017-07-30T12:06:54.793Z,640
2017-07-30T12:08:04.396Z,1015
2017-07-30T12:09:14.280Z,675
2017-07-30T12:10:23.500Z,570
2017-07-30T12:11:32.389Z,730
2017-07-30T12:12:41.927Z,2060
2017-07-30T12:13:51.519Z,2165
2017-07-30T12:15:00.738Z,2515
2017-07-30T12:16:10.276Z,2050
2017-07-30T12:17:19.496Z,2380
2017-07-30T12:18:28.389Z,2020
2017-07-30T12:19:37.767Z,2205
2017-07-30T12:20:47.310Z,2455
2017-07-30T12:21:56.546Z,1820
2017-07-30T12:23:06.427Z,1700
2017-07-30T12:24:16.286Z,2045
2017-07-30T12:25:25.506Z,1900
2017-07-30T12:26:34.720Z,2470
2017-07-30T12:27:43.949Z,2940
2017-07-30T12:28:53.489Z,2665
2017-07-30T12:30:02.705Z,2130
2017-07-30T12:31:12.244Z,1950
2017-07-30T12:32:21.787Z,2055
2017-07-30T12:33:31.649Z,1775
2017-07-30T12:34:40.873Z,1750
2017-07-30T12:35:50.429Z,1685
2017-07-30T12:37:00.165Z,2170
2017-07-30T12:38:10.026Z,2665
2017-07-30T12:39:19.248Z,3125
2017-07-30T12:40:28.463Z,3340
2017-07-30T12:41:38.328Z,3565
2017-07-30T12:42:48.200Z,3810
2017-07-30T12:43:57.420Z,3600
2017-07-30T12:45:07.291Z,3360
2017-07-30T12:46:16.517Z,3630
2017-07-30T12:47:25.415Z,3820
2017-07-30T12:48:35.115Z,3730
2017-07-30T12:49:44.338Z,3780
2017-07-30T12:50:53.242Z,4125
2017-07-30T12:52:02.143Z,4035
2017-07-30T12:53:11.042Z,3935
2017-07-30T12:54:20.745Z,395
2017-07-30T12:55:29.968Z,465
2017-07-30T12:56:39.511Z,445
2017-07-30T12:57:49.053Z,590
2017-07-30T12:58:58.274Z,590
2017-07-30T13:00:08.294Z,505
2017-07-30T13:01:18.173Z,4315
2017-07-30T13:02:27.073Z,600
2017-07-30T13:03:36.293Z,455
2017-07-30T13:04:45.191Z,4070
2017-07-30T13:05:55.104Z,4195
2017-07-30T13:07:04.323Z,4000
2017-07-30T13:08:13.222Z,920
2017-07-30T13:09:22.114Z,2280
2017-07-30T13:10:31.339Z,3895
2017-07-30T13:11:40.665Z,3380
2017-07-30T13:12:50.210Z,1845
2017-07-30T13:14:00.095Z,920
2017-07-30T13:15:09.651Z,690
2017-07-30T13:16:19.202Z,2165
2017-07-30T13:17:28.755Z,2490
2017-07-30T13:18:37.980Z,805
2017-07-30T13:19:47.850Z,1560
2017-07-30T13:20:57.718Z,845
2017-07-30T13:22:07.288Z,890
2017-07-30T13:23:16.673Z,3940
2017-07-30T13:24:26.216Z,3590
2017-07-30T13:25:35.433Z,805
2017-07-30T13:26:44.654Z,3355
2017-07-30T13:27:53.878Z,890
2017-07-30T13:29:03.581Z,3225
2017-07-30T13:30:13.130Z,2745
2017-07-30T13:31:22.029Z,725
2017-07-30T13:32:31.250Z,635
2017-07-30T13:33:40.465Z,635
2017-07-30T13:34:50.419Z,480
2017-07-30T13:35:59.971Z,535
2017-07-30T13:37:09.515Z,850
2017-07-30T13:38:19.061Z,880
2017-07-30T13:39:27.956Z,685
2017-07-30T13:40:37.929Z,615
2017-07-30T13:41:47.151Z,650
2017-07-30T13:42:56.378Z,1780
2017-07-30T13:44:05.604Z,790
2017-07-30T13:45:15.472Z,680
2017-07-30T13:46:25.012Z,645
2017-07-30T13:47:34.553Z,765
2017-07-30T13:48:44.097Z,605
2017-07-30T13:49:53.312Z,655
2017-07-30T13:51:02.209Z,895
2017-07-30T13:52:11.855Z,820
2017-07-30T13:53:21.077Z,780
2017-07-30T13:54:29.968Z,1315
2017-07-30T13:55:39.509Z,1670
2017-07-30T13:56:49.371Z,870
2017-07-30T13:57:59.212Z,715
2017-07-30T13:59:09.081Z,550
2017-07-30T14:00:18.666Z,450
2017-07-30T14:01:28.207Z,490
2017-07-30T14:02:37.435Z,700
2017-07-30T14:03:47.076Z,975
2017-07-30T14:04:56.290Z,2125
2017-07-30T14:06:06.485Z,2925
2017-07-30T14:07:16.034Z,3105
2017-07-30T14:08:24.929Z,2715
2017-07-30T14:09:34.298Z,3400
2017-07-30T14:10:43.517Z,3640
2017-07-30T14:11:52.741Z,2390
2017-07-30T14:13:01.960Z,3020
2017-07-30T14:14:11.827Z,1145
2017-07-30T14:15:20.826Z,3210
2017-07-30T14:16:30.694Z,2310
2017-07-30T14:17:41.211Z,1675
2017-07-30T14:18:50.761Z,1495
2017-07-30T14:20:00.305Z,2780
2017-07-30T14:21:09.582Z,1205
2017-07-30T14:22:18.808Z,3160
2017-07-30T14:23:28.363Z,1695
2017-07-30T14:24:37.909Z,705
2017-07-30T14:25:47.775Z,670
2017-07-30T14:26:56.672Z,480
2017-07-30T14:28:06.214Z,385
2017-07-30T14:29:16.086Z,410
2017-07-30T14:30:25.952Z,410
2017-07-30T14:31:34.849Z,405
2017-07-30T14:32:44.779Z,425
2017-07-30T14:33:53.675Z,490
2017-07-30T14:35:02.569Z,590
2017-07-30T14:36:12.436Z,620
2017-07-30T14:37:21.651Z,545
2017-07-30T14:38:32.041Z,530
2017-07-30T14:39:40.937Z,635
2017-07-30T14:40:49.835Z,560
2017-07-30T14:41:59.375Z,645
2017-07-30T14:43:08.590Z,645
2017-07-30T14:44:18.978Z,835
2017-07-30T14:45:27.871Z,1400
2017-07-30T14:46:36.763Z,605
2017-07-30T14:47:45.985Z,475
2017-07-30T14:48:56.168Z,805
2017-07-30T14:50:05.858Z,830
2017-07-30T14:51:15.724Z,940
2017-07-30T14:52:25.263Z,840
2017-07-30T14:53:34.811Z,755
2017-07-30T14:54:44.033Z,735
2017-07-30T14:55:53.875Z,1055
2017-07-30T14:57:03.116Z,1120
2017-07-30T14:58:12.707Z,3140
2017-07-30T14:59:21.929Z,1200
2017-07-30T15:00:31.470Z,1145
2017-07-30T15:01:41.481Z,2875
2017-07-30T15:02:51.347Z,860
2017-07-30T15:04:00.886Z,660
2017-07-30T15:05:10.753Z,635
2017-07-30T15:06:19.975Z,630
2017-07-30T15:07:29.345Z,700
2017-07-30T15:08:38.891Z,840
2017-07-30T15:09:49.078Z,610
2017-07-30T15:10:58.634Z,575
2017-07-30T15:12:08.501Z,795
2017-07-30T15:13:18.138Z,1435
2017-07-30T15:14:28.321Z,455
2017-07-30T15:15:37.542Z,345
2017-07-30T15:16:46.442Z,295
2017-07-30T15:17:56.018Z,275
2017-07-30T15:19:06.028Z,290
2017-07-30T15:20:15.565Z,285
2017-07-30T15:21:24.783Z,280
2017-07-30T15:22:33.999Z,270
2017-07-30T15:23:42.887Z,230
2017-07-30T15:24:52.104Z,170
2017-07-30T15:26:01.324Z,190
2017-07-30T15:27:10.537Z,280
2017-07-30T15:28:20.077Z,405
2017-07-30T15:29:30.270Z,430
2017-07-30T15:30:39.637Z,370
2017-07-30T15:31:49.174Z,315
2017-07-30T15:32:58.711Z,250
2017-07-30T15:34:08.247Z,250
2017-07-30T15:35:17.462Z,320
2017-07-30T15:36:26.973Z,485
2017-07-30T15:37:36.508Z,1020
2017-07-30T15:38:46.041Z,1040
2017-07-30T15:39:54.934Z,1130
2017-07-30T15:41:04.480Z,1705
2017-07-30T15:42:14.031Z,920
2017-07-30T15:43:23.892Z,2935
2017-07-30T15:44:33.435Z,2690
2017-07-30T15:45:43.304Z,2600
2017-07-30T15:46:52.514Z,2720
2017-07-30T15:48:02.308Z,2685
2017-07-30T15:49:12.178Z,1815
2017-07-30T15:50:21.744Z,2650
2017-07-30T15:51:31.288Z,2605
2017-07-30T15:52:40.510Z,2645
2017-07-30T15:53:49.558Z,2620
2017-07-30T15:54:59.429Z,2595
2017-07-30T15:56:08.648Z,2675
2017-07-30T15:57:17.867Z,2735
2017-07-30T15:58:27.410Z,2700
2017-07-30T15:59:36.821Z,2630
2017-07-30T16:00:46.368Z,2315
2017-07-30T16:01:55.265Z,2320
2017-07-30T16:03:04.806Z,2740
2017-07-30T16:04:14.376Z,2640
2017-07-30T16:05:23.754Z,2230
2017-07-30T16:06:33.301Z,2745
2017-07-30T16:07:42.206Z,730
2017-07-30T16:08:51.430Z,2860
2017-07-30T16:10:00.977Z,1335